航空気象通報

ウインドサーファーのための航空気象通報による風予報です。

4/29-5/1の航空気象通報

2017年04月29日 22時25分26秒 | TAF
羽田空港
TAF RJTT 291105Z 2912/3018 05008KT 9999 FEW030
BECMG 2917/2919 20006KT
BECMG 3000/3003 17018KT
日本時間29日21時-30日02時:050度から8ノットの風
02-04時:風が変化
04-09時:200度から6ノットの風
09-12時:風が変化
12時-1日03時:170度から18ノットの風


静岡空港
TAF RJNS 291111Z 2912/3018 27015KT 9999 FEW030
BECMG 2914/2916 26005KT
BECMG 3000/3003 23016KT
TEMPO 3000/3006 23018G28KT
BECMG 3012/3015 26006KT
日本時間29日21-23時:270度から15ノットの風
23時-30日01時:風が変化
01-09時:260度から5ノットの風
09-12時:風が変化
12-21時:230度から16ノットの風
但し、09-15時の間:ときどき230度から18ノット、突風28ノット
18-21時:風が変化
21時-1日03時:260度から6ノットの風


福岡空港
TAF RJFF 291105Z 2912/3018 15012KT CAVOK
BECMG 3003/3006 27010KT
BECMG 3009/3012 15012KT
日本時間29日21時-30日12時:150度から12ノットの風
12-15時:風が変化
15-18時:270度から10ノットの風
18-21時:風が変化
21時-1日03時:150度から12ノットの風


那覇空港
TAF ROAH 291106Z 2912/3018 05006KT 9999 FEW040
BECMG 2915/2917 11005KT
日本時間29日21時-30日24時:050度から6ノットの風
1日00-02時:風が変化
02-03時:110度から5ノットの風


石垣空港
TAF ROIG 291113Z 2912/3018 11005KT 9999 FEW040
日本時間29日21時-1日03時:110度から5ノットの風


マウイのカフルイ空港
PHOG 291120Z 2912/3012 20006KT P6SM VCSH FEW025 BKN050
FM292000 02010KT P6SM VCSH SCT020 BKN045
FM300400 05007KT P6SM VCSH SCT020 BKN045
ハワイ時間29日02-10時:200度から6ノットの風
10-18時:020度から10ノットの風
18時-30日02時:050度から7ノットの風


サイパン空港
TAF PGSN 291120Z 2912/3012 10007KT P6SM VCSH SCT024
マリアナ時間29日22時-30日22時:100度から7ノットの風

コメント

4/28-4/30の航空気象通報

2017年04月29日 00時19分52秒 | TAF
羽田空港
TAF RJTT 281105Z 2812/2918 18008KT 9999 FEW030
BECMG 2812/2814 34006KT
BECMG 2820/2822 19012KT
TEMPO 2900/2906 19022G32KT
TEMPO 2906/2909 19022G32KT 4000 TSRA BR FEW008 BKN015 FEW020CB
BECMG 2909/2912 34006KT
日本時間28日21時:180度から8ノットの風
21-23時:風が変化
23時-29日05時:340度から6ノットの風
05-07時:風が変化
07-18時:190度から12ノットの風
但し、09-18時の間:ときどき190度から22ノット、突風32ノット
18-21時:180度から14ノットの風
21時-30日03時:340度から6ノットの風

但し、15-18時の間:ときどき

静岡空港
TAF RJNS 281108Z 2812/2918 29010KT 9999 FEW030
BECMG 2900/2903 23014KT
TEMPO 2903/2906 23020G30KT 4000 -TSRA BR FEW005 BKN008 FEW020CB
BECMG 2906/2909 29016KT
TEMPO 2906/2909 29025G35KT 3000 TSRA BR FEW005 BKN008 FEW020CB
日本時間28日21時-29日09時:290度から10ノットの風
09-12時:風が変化
12-15時:230度から14ノットの風
但し、29日12-15時の間:ときどき230度から20ノット、突風30ノット
15-18時:風が変化
18時-30日03時:290度から16ノットの風
但し、29日15-18時の間:ときどき290度から25ノット、突風35ノット

但し、29日12-15時の間:ときどき
但し、29日15-18時の間:ときどき

福岡空港
TAF RJFF 281106Z 2812/2918 15012KT 9999 FEW025
BECMG 2822/2900 28010KT
BECMG 2909/2912 15011KT
日本時間28日21時-29日07時:150度から12ノットの風
07-09時:風が変化
09-18時:280度から10ノットの風
18-21時:風が変化
21時-30日03時:150度から11ノットの風


那覇空港
TAF ROAH 281105Z 2812/2918 02007KT 9999 FEW035
BECMG 2912/2915 11004KT
日本時間28日21時-29日21時:020度から7ノットの風
21-24時:風が変化
30日00-03時:360度から15ノットの風


石垣空港
TAF ROIG 281107Z 2812/2918 03006KT 9999 FEW035
日本時間28日21時-30日03時:030度から6ノットの風


マウイのカフルイ空港
PHOG 281127Z 2812/2912 19005KT P6SM VCSH SCT025 BKN050
FM282000 34010KT P6SM VCSH SCT025 BKN045
FM290400 VRB05KT P6SM VCSH SCT025 BKN045 AMD LTD TO VIS AND WIND TIL 281600
ハワイ時間28日02-10時:190度から5ノットの風
10-18時:340度から10ノットの風
18時-29日02時:風向不定5ノットの風


サイパン空港
TAF PGSN 281120Z 2812/2912 12007KT P6SM VCSH SCT020 BKN110
マリアナ時間28日22時-29日22時:120度から7ノットの風
コメント

4/27-4/29の航空気象通報

2017年04月28日 00時36分01秒 | TAF
羽田空港
TAF RJTT 271105Z 2712/2818 22010KT 9999 FEW020 BKN040
BECMG 2714/2716 36008KT
BECMG 2800/2803 08006KT
BECMG 2803/2806 18014KT
BECMG 2815/2818 26006KT
日本時間27日21-23時:220度から10ノットの風
23時-28日01時:風が変化
01-09時:360度から8ノットの風
09-12時:風が変化
12時:080度から6ノットの風
12-15時:風が変化
15-24時:180度から14ノットの風
29日00-03時:風が変化
03時:260度から6ノットの風


静岡空港
TAF RJNS 271105Z 2712/2818 10006KT 9999 FEW015 SCT020
BECMG 2712/2714 28008KT
TEMPO 2803/2809 24018G28KT
日本時間27日21時:100度から6ノットの風
21-23時:風が変化
23時-29日03時:280度から8ノットの風
但し、28日12-18時の間:ときどき240度から18ノット、突風28ノット


福岡空港
TAF RJFF 271107Z 2712/2818 27005KT 9999 FEW030
BECMG 2712/2714 16005KT
BECMG 2800/2803 29010KT
BECMG 2809/2812 16009KT
日本時間27日21時:270度から5ノットの風
21-23時:風が変化
23時-28日09時:160度から5ノットの風
09-12時:風が変化
12-18時:290度から10ノットの風
18-21時:風が変化
21時-29日03時:160度から9ノットの風


那覇空港
TAF ROAH 271105Z 2712/2818 36015KT 9999 FEW020 BKN045
日本時間27日21時-29日03時:360度から15ノットの風


石垣空港
TAF ROIG 271110Z 2712/2818 02014KT 9999 SCT020 BKN040
日本時間27日21時-29日03時:020度から14ノットの風


マウイのカフルイ空港
PHOG 271126Z 2712/2812 14006KT P6SM VCSH FEW035 SCT050
FM272000 06013KT P6SM VCSH FEW035 BKN050
FM280500 08008KT P6SM VCSH FEW035 BKN050
FM280800 14006KT P6SM VCSH FEW035 BKN050 AMD LTD TO VIS AND WIND TIL 271600
ハワイ時間27日02-10時:140度から6ノットの風
10-19時:060度から13ノットの風
19-22時:080度から8ノットの風
22時-28日02時:140度から6ノットの風


サイパン空港
TAF PGSN 271120Z 2712/2812 12010KT P6SM VCSH SCT022 BKN110
マリアナ時間27日22時-28日22時:120度から10ノットの風

コメント

4/26-4/28の航空気象通報

2017年04月27日 01時02分20秒 | TAF
羽田空港
TAF RJTT 261105Z 2612/2718 20018KT 9999 FEW015 SCT050
TEMPO 2615/2618 FEW005 BKN008
BECMG 2617/2619 35014KT
BECMG 2700/2703 05014KT
BECMG 2703/2706 12006KT
BECMG 2712/2715 32006KT
日本時間26日21時-27日02時:200度から18ノットの風
02-04時:風が変化
04-09時:350度から14ノットの風
09-12時:風が変化
12時:050度から14ノットの風
12-15時:風が変化
15-21時:120度から6ノットの風
21-24時:風が変化
28日00-03時:320度から6ノットの風

但し、27日00-03時の間:ときどき

静岡空港
TAF RJNS 261111Z 2612/2718 28012KT 9999 FEW010 BKN020
TEMPO 2612/2615 3000 SHRA BR FEW003 BKN005
BECMG 2700/2703 16012KT
BECMG 2709/2712 30004KT
日本時間26日21時-27日09時:280度から12ノットの風
09-12時:風が変化
12-18時:160度から12ノットの風
18-21時:風が変化
21時-28日03時:300度から4ノットの風

但し、26日21-24時の間:ときどき

福岡空港
TAF RJFF 261109Z 2612/2718 02005KT 9999 FEW015 BKN025
BECMG 2700/2703 31011KT
BECMG 2709/2712 15005KT
日本時間26日21時-27日09時:020度から5ノットの風
09-12時:風が変化
12-18時:310度から11ノットの風
18-21時:風が変化
21時-28日03時:150度から5ノットの風


那覇空港
TAF ROAH 261108Z 2612/2718 29010KT 8000 -RA FEW006 SCT010 BKN020
TEMPO 2612/2614 4000 SHRA
BECMG 2616/2618 35013KT
TEMPO 2703/2712 RA
日本時間26日21時-27日01時:290度から10ノットの風
01-03時:風が変化
03時-28日03時:350度から13ノットの風


石垣空港
TAF ROIG 261113Z 2612/2718 01011KT 9999 FEW008 SCT015 BKN030
TEMPO 2612/2614 2500 +SHRA FEW004 BKN008 FEW015CB
TEMPO 2706/2712 01018G28KT RA
日本時間26日21時-28日03時:010度から11ノットの風
但し、27日15-21時の間:ときどき010度から18ノット、突風28ノット

但し、26日21-23時の間:ときどき
但し、27日15-21時の間:ときどき

マウイのカフルイ空港
PHOG 261120Z 2612/2712 VRB05KT P6SM FEW035 FEW050
FM262000 06017G25KT P6SM FEW030 SCT050
FM270500 06010G15KT P6SM FEW030 SCT050
FM270700 07007KT P6SM FEW030 AMD LTD TO VIS AND WIND TIL 261600
ハワイ時間26日02-10時:風向不定5ノットの風
10-19時:060度から17ノット、突風25ノット
19-21時:060度から10ノット、突風15ノット
21時-27日02時:060度から7ノットの風


サイパン空港
PGSN 261548Z 2616/2712 09006KT P6SM VCSH SCT020 BKN100
TEMPO 2616/2619 15010G18KT 3SM SHRA SCT014 BKN020
マリアナ時間26日22時-27日22時:090度から6ノットの風
但し、27日02-05時の間:ときどき150度から10ノット、突風18ノット

但し、27日02-05時の間:ときどき
コメント

4/25-4/27の航空気象通報

2017年04月26日 00時28分33秒 | TAF
羽田空港
TAF RJTT 251105Z 2512/2618 21014KT 9999 FEW020
TEMPO 2603/2609 20022G32KT
日本時間25日21時-27日03時:210度から14ノットの風
但し、12-18時の間:ときどき200度から22ノット、突風32ノット


静岡空港
TAF RJNS 251105Z 2512/2618 32004KT 9999 FEW010 BKN025
BECMG 2600/2603 18008KT
BECMG 2606/2609 26010KT
TEMPO 2606/2609 4000 -SHRA BR FEW005 BKN008
TEMPO 2609/2615 2000 SHRA BR FEW003 BKN005
日本時間25日21時-26日09時:320度から4ノットの風
09-12時:風が変化
12-15時:180度から8ノットの風
15-18時:風が変化
18時-27日03時:260度から10ノットの風

但し、26日15-24時の間:ときどき

福岡空港
TAF RJFF 251113Z 2512/2618 14004KT 9999 FEW030 SCT045
TEMPO 2518/2600 3000 SHRA BR
TEMPO 2600/2606 4000 -SHRA BR
BECMG 2606/2609 33005KT
TEMPO 2606/2609 4000 -SHRA BR FEW005 BKN008 BKN020
日本時間25日21時-26日15時:140度から4ノットの風
15-18時:風が変化
18時-27日03時:330度から5ノットの風

但し、26日03-18時の間:ときどき

那覇空港
TAF ROAH 251110Z 2512/2618 13014KT 9999 SCT015 SCT030
TEMPO 2520/2600 4000 SHRA FEW005 BKN008 FEW015CB
TEMPO 2600/2603 FEW005 BKN008
BECMG 2603/2606 21016KT
BECMG 2609/2612 34012KT
日本時間25日21時-26日12時:130度から14ノットの風
12-15時:風が変化
15-18時:210度から16ノットの風
18-21時:風が変化
21時-27日03時:340度から12ノットの風


石垣空港
TAF ROIG 251114Z 2512/2618 12010KT 9999 SCT007 BKN015
TEMPO 2512/2518 4000 SHRA FEW005 BKN007 FEW015CB
BECMG 2514/2516 16010KT
TEMPO 2518/2600 FEW005 BKN007
TEMPO 2609/2612 3000 SHRA FEW005 BKN008 FEW015CB
BECMG 2609/2612 02006KT
日本時間25日21-23時:120度から10ノットの風
23時-26日01時:風が変化
01-18時:160度から10ノットの風
18-21時:風が変化
21時-17日03時:020度から6ノットの風

但し、25日21時-26日03時の間:ときどき
但し、26日18-21時の間:ときどき

マウイのカフルイ空港
PHOG 251136Z 2512/2612 04009KT P6SM FEW040
FM252000 06017G25KT P6SM FEW035 SCT050
FM260500 04009KT P6SM FEW040 AMD LTD TO VIS AND WIND TIL 251600
ハワイ時間25日02-10時:040度から9ノットの風
10-19時:060度から17ノット、突風25ノット
19時-26日02時:040度から9ノットの風


サイパン空港
TAF PGSN 251133Z 2512/2612 09011KT P6SM VCSH FEW018 BKN090 BKN140
マリアナ時間25日22時-26日22時:090度から11ノットの風
コメント